sensor_id;sensor_type;location;lat;lon;timestamp;temperature;humidity
36206;DHT22;22242;48.796;9.930;2022-12-07T00:01:25;2.80;99.90
36206;DHT22;22242;48.796;9.930;2022-12-07T00:03:53;2.80;99.90
36206;DHT22;22242;48.796;9.930;2022-12-07T00:06:23;2.90;99.90
36206;DHT22;22242;48.796;9.930;2022-12-07T00:08:51;2.90;99.90
36206;DHT22;22242;48.796;9.930;2022-12-07T00:11:19;2.90;99.90
36206;DHT22;22242;48.796;9.930;2022-12-07T00:13:47;2.80;99.90
36206;DHT22;22242;48.796;9.930;2022-12-07T00:16:16;3.00;99.90
36206;DHT22;22242;48.796;9.930;2022-12-07T00:18:44;2.90;99.90
36206;DHT22;22242;48.796;9.930;2022-12-07T00:21:12;3.00;99.90
36206;DHT22;22242;48.796;9.930;2022-12-07T00:23:40;3.00;99.90
36206;DHT22;22242;48.796;9.930;2022-12-07T00:26:10;3.00;99.90
36206;DHT22;22242;48.796;9.930;2022-12-07T00:28:38;2.90;99.90
36206;DHT22;22242;48.796;9.930;2022-12-07T00:31:07;2.90;99.90
36206;DHT22;22242;48.796;9.930;2022-12-07T00:33:35;2.90;99.90
36206;DHT22;22242;48.796;9.930;2022-12-07T00:36:03;2.90;99.90
36206;DHT22;22242;48.796;9.930;2022-12-07T00:38:33;2.90;99.90
36206;DHT22;22242;48.796;9.930;2022-12-07T00:41:03;2.90;99.90
36206;DHT22;22242;48.796;9.930;2022-12-07T00:43:32;2.80;99.90
36206;DHT22;22242;48.796;9.930;2022-12-07T00:45:59;2.80;99.90
36206;DHT22;22242;48.796;9.930;2022-12-07T00:48:26;2.80;99.90
36206;DHT22;22242;48.796;9.930;2022-12-07T00:50:52;2.80;99.90
36206;DHT22;22242;48.796;9.930;2022-12-07T00:53:19;2.80;99.90
36206;DHT22;22242;48.796;9.930;2022-12-07T00:55:46;2.90;99.90
36206;DHT22;22242;48.796;9.930;2022-12-07T00:58:14;2.80;99.90
36206;DHT22;22242;48.796;9.930;2022-12-07T01:00:43;2.80;99.90
36206;DHT22;22242;48.796;9.930;2022-12-07T01:03:11;2.80;99.90
36206;DHT22;22242;48.796;9.930;2022-12-07T01:05:39;2.90;99.90
36206;DHT22;22242;48.796;9.930;2022-12-07T01:08:06;2.80;99.90
36206;DHT22;22242;48.796;9.930;2022-12-07T01:10:33;2.80;99.90
36206;DHT22;22242;48.796;9.930;2022-12-07T01:13:00;2.80;99.90
36206;DHT22;22242;48.796;9.930;2022-12-07T01:15:27;2.80;99.90
36206;DHT22;22242;48.796;9.930;2022-12-07T01:17:55;2.80;99.90
36206;DHT22;22242;48.796;9.930;2022-12-07T01:20:22;2.90;99.90
36206;DHT22;22242;48.796;9.930;2022-12-07T01:22:49;2.90;99.90
36206;DHT22;22242;48.796;9.930;2022-12-07T01:25:16;2.80;99.90
36206;DHT22;22242;48.796;9.930;2022-12-07T01:27:42;2.80;99.90
36206;DHT22;22242;48.796;9.930;2022-12-07T01:30:11;2.90;99.90
36206;DHT22;22242;48.796;9.930;2022-12-07T01:32:38;2.90;99.90
36206;DHT22;22242;48.796;9.930;2022-12-07T01:35:07;2.90;99.90
36206;DHT22;22242;48.796;9.930;2022-12-07T01:37:35;2.80;99.90
36206;DHT22;22242;48.796;9.930;2022-12-07T01:40:03;2.80;99.90
36206;DHT22;22242;48.796;9.930;2022-12-07T01:42:30;2.70;99.90
36206;DHT22;22242;48.796;9.930;2022-12-07T01:45:31;2.70;99.90
36206;DHT22;22242;48.796;9.930;2022-12-07T01:48:04;2.70;99.90
36206;DHT22;22242;48.796;9.930;2022-12-07T01:50:34;2.70;99.90
36206;DHT22;22242;48.796;9.930;2022-12-07T01:53:03;2.70;99.90
36206;DHT22;22242;48.796;9.930;2022-12-07T01:55:32;2.70;99.90
36206;DHT22;22242;48.796;9.930;2022-12-07T01:58:00;2.70;99.90
36206;DHT22;22242;48.796;9.930;2022-12-07T02:00:27;2.70;99.90
36206;DHT22;22242;48.796;9.930;2022-12-07T02:02:57;2.70;99.90
36206;DHT22;22242;48.796;9.930;2022-12-07T02:05:26;2.70;99.90
36206;DHT22;22242;48.796;9.930;2022-12-07T02:07:56;2.80;99.90
36206;DHT22;22242;48.796;9.930;2022-12-07T02:10:29;2.70;99.90
36206;DHT22;22242;48.796;9.930;2022-12-07T02:12:59;2.80;99.90
36206;DHT22;22242;48.796;9.930;2022-12-07T02:15:33;2.70;99.90
36206;DHT22;22242;48.796;9.930;2022-12-07T02:18:05;2.70;99.90
36206;DHT22;22242;48.796;9.930;2022-12-07T02:20:37;2.80;99.90
36206;DHT22;22242;48.796;9.930;2022-12-07T02:23:37;2.80;99.90
36206;DHT22;22242;48.796;9.930;2022-12-07T02:26:39;2.60;99.90
36206;DHT22;22242;48.796;9.930;2022-12-07T02:29:14;2.70;99.90
36206;DHT22;22242;48.796;9.930;2022-12-07T02:31:48;2.70;99.90
36206;DHT22;22242;48.796;9.930;2022-12-07T02:34:19;2.80;99.90
36206;DHT22;22242;48.796;9.930;2022-12-07T02:36:52;2.80;99.90
36206;DHT22;22242;48.796;9.930;2022-12-07T02:39:26;2.80;99.90
36206;DHT22;22242;48.796;9.930;2022-12-07T02:41:57;2.70;99.90
36206;DHT22;22242;48.796;9.930;2022-12-07T02:44:28;2.70;99.90
36206;DHT22;22242;48.796;9.930;2022-12-07T02:46:57;2.70;99.90
36206;DHT22;22242;48.796;9.930;2022-12-07T02:49:26;2.70;99.90
36206;DHT22;22242;48.796;9.930;2022-12-07T02:51:53;2.70;99.90
36206;DHT22;22242;48.796;9.930;2022-12-07T02:54:21;2.70;99.90
36206;DHT22;22242;48.796;9.930;2022-12-07T02:56:50;2.70;99.90
36206;DHT22;22242;48.796;9.930;2022-12-07T02:59:28;2.60;99.90
36206;DHT22;22242;48.796;9.930;2022-12-07T03:02:08;2.60;99.90
36206;DHT22;22242;48.796;9.930;2022-12-07T03:04:44;2.60;99.90
36206;DHT22;22242;48.796;9.930;2022-12-07T03:07:21;2.60;99.90
36206;DHT22;22242;48.796;9.930;2022-12-07T03:09:55;2.60;99.90
36206;DHT22;22242;48.796;9.930;2022-12-07T03:12:31;2.50;99.90
36206;DHT22;22242;48.796;9.930;2022-12-07T03:15:05;2.60;99.90
36206;DHT22;22242;48.796;9.930;2022-12-07T03:17:35;2.50;99.90
36206;DHT22;22242;48.796;9.930;2022-12-07T03:20:07;2.50;99.90
36206;DHT22;22242;48.796;9.930;2022-12-07T03:22:38;2.50;99.90
36206;DHT22;22242;48.796;9.930;2022-12-07T03:25:09;2.60;99.90
36206;DHT22;22242;48.796;9.930;2022-12-07T03:27:39;2.60;99.90
36206;DHT22;22242;48.796;9.930;2022-12-07T03:30:11;2.60;99.90
36206;DHT22;22242;48.796;9.930;2022-12-07T03:32:41;2.60;99.90
36206;DHT22;22242;48.796;9.930;2022-12-07T03:35:12;2.60;99.90
36206;DHT22;22242;48.796;9.930;2022-12-07T03:37:46;2.60;99.90
36206;DHT22;22242;48.796;9.930;2022-12-07T03:40:19;2.50;99.90
36206;DHT22;22242;48.796;9.930;2022-12-07T03:42:48;2.50;99.90
36206;DHT22;22242;48.796;9.930;2022-12-07T03:45:18;2.50;99.90
36206;DHT22;22242;48.796;9.930;2022-12-07T03:47:50;2.50;99.90
36206;DHT22;22242;48.796;9.930;2022-12-07T03:50:24;2.60;99.90
36206;DHT22;22242;48.796;9.930;2022-12-07T03:52:55;2.50;99.90
36206;DHT22;22242;48.796;9.930;2022-12-07T03:55:26;2.50;99.90
36206;DHT22;22242;48.796;9.930;2022-12-07T03:57:58;2.50;99.90
36206;DHT22;22242;48.796;9.930;2022-12-07T04:00:28;2.50;99.90
36206;DHT22;22242;48.796;9.930;2022-12-07T04:02:55;2.50;99.90
36206;DHT22;22242;48.796;9.930;2022-12-07T04:05:23;2.40;99.90
36206;DHT22;22242;48.796;9.930;2022-12-07T04:07:50;2.30;99.90
36206;DHT22;22242;48.796;9.930;2022-12-07T04:10:17;2.30;99.90
36206;DHT22;22242;48.796;9.930;2022-12-07T04:12:44;2.30;99.90
36206;DHT22;22242;48.796;9.930;2022-12-07T04:15:11;2.30;99.90
36206;DHT22;22242;48.796;9.930;2022-12-07T04:17:39;2.20;99.90
36206;DHT22;22242;48.796;9.930;2022-12-07T04:20:08;2.30;99.90
36206;DHT22;22242;48.796;9.930;2022-12-07T04:22:35;2.20;99.90
36206;DHT22;22242;48.796;9.930;2022-12-07T04:25:02;2.30;99.90
36206;DHT22;22242;48.796;9.930;2022-12-07T04:27:29;2.30;99.90
36206;DHT22;22242;48.796;9.930;2022-12-07T04:29:56;2.20;99.90
36206;DHT22;22242;48.796;9.930;2022-12-07T04:32:23;2.30;99.90
36206;DHT22;22242;48.796;9.930;2022-12-07T04:34:51;2.20;99.90
36206;DHT22;22242;48.796;9.930;2022-12-07T04:37:18;2.30;99.90
36206;DHT22;22242;48.796;9.930;2022-12-07T04:39:45;2.30;99.90
36206;DHT22;22242;48.796;9.930;2022-12-07T04:42:12;2.40;99.90
36206;DHT22;22242;48.796;9.930;2022-12-07T04:44:39;2.30;99.90
36206;DHT22;22242;48.796;9.930;2022-12-07T04:47:06;2.30;99.90
36206;DHT22;22242;48.796;9.930;2022-12-07T04:49:33;2.20;99.90
36206;DHT22;22242;48.796;9.930;2022-12-07T04:52:01;2.20;99.90
36206;DHT22;22242;48.796;9.930;2022-12-07T04:54:28;2.10;99.90
36206;DHT22;22242;48.796;9.930;2022-12-07T04:56:55;2.00;99.90
36206;DHT22;22242;48.796;9.930;2022-12-07T04:59:22;1.90;99.90
36206;DHT22;22242;48.796;9.930;2022-12-07T05:01:49;1.90;99.90
36206;DHT22;22242;48.796;9.930;2022-12-07T05:04:16;1.90;99.90
36206;DHT22;22242;48.796;9.930;2022-12-07T05:06:44;1.90;99.90
36206;DHT22;22242;48.796;9.930;2022-12-07T05:09:12;1.90;99.90
36206;DHT22;22242;48.796;9.930;2022-12-07T05:11:39;1.90;99.90
36206;DHT22;22242;48.796;9.930;2022-12-07T05:14:09;1.90;99.90
36206;DHT22;22242;48.796;9.930;2022-12-07T05:16:36;2.00;99.90
36206;DHT22;22242;48.796;9.930;2022-12-07T05:19:03;2.10;99.90
36206;DHT22;22242;48.796;9.930;2022-12-07T05:21:30;2.10;99.90
36206;DHT22;22242;48.796;9.930;2022-12-07T05:23:57;2.10;99.90
36206;DHT22;22242;48.796;9.930;2022-12-07T05:26:26;2.10;99.90
36206;DHT22;22242;48.796;9.930;2022-12-07T05:28:53;2.10;99.90
36206;DHT22;22242;48.796;9.930;2022-12-07T05:31:21;2.10;99.90
36206;DHT22;22242;48.796;9.930;2022-12-07T05:33:48;2.10;99.90
36206;DHT22;22242;48.796;9.930;2022-12-07T05:36:15;2.10;99.90
36206;DHT22;22242;48.796;9.930;2022-12-07T05:38:42;2.10;99.90
36206;DHT22;22242;48.796;9.930;2022-12-07T05:41:12;2.10;99.90
36206;DHT22;22242;48.796;9.930;2022-12-07T05:43:55;2.10;99.90
36206;DHT22;22242;48.796;9.930;2022-12-07T05:46:22;2.10;99.90
36206;DHT22;22242;48.796;9.930;2022-12-07T05:48:49;2.00;99.90
36206;DHT22;22242;48.796;9.930;2022-12-07T05:51:17;1.90;99.90
36206;DHT22;22242;48.796;9.930;2022-12-07T05:53:44;2.00;99.90
36206;DHT22;22242;48.796;9.930;2022-12-07T05:56:11;2.10;99.90
36206;DHT22;22242;48.796;9.930;2022-12-07T05:58:38;2.20;99.90
36206;DHT22;22242;48.796;9.930;2022-12-07T06:01:23;2.20;99.90
36206;DHT22;22242;48.796;9.930;2022-12-07T06:03:50;2.20;99.90
36206;DHT22;22242;48.796;9.930;2022-12-07T06:06:17;2.20;99.90
36206;DHT22;22242;48.796;9.930;2022-12-07T06:08:44;2.20;99.90
36206;DHT22;22242;48.796;9.930;2022-12-07T06:11:11;2.20;99.90
36206;DHT22;22242;48.796;9.930;2022-12-07T06:13:55;2.20;99.90
36206;DHT22;22242;48.796;9.930;2022-12-07T06:16:24;2.10;99.90
36206;DHT22;22242;48.796;9.930;2022-12-07T06:18:50;2.00;99.90
36206;DHT22;22242;48.796;9.930;2022-12-07T06:21:17;2.00;99.90
36206;DHT22;22242;48.796;9.930;2022-12-07T06:23:44;1.90;99.90
36206;DHT22;22242;48.796;9.930;2022-12-07T06:26:13;1.90;99.90
36206;DHT22;22242;48.796;9.930;2022-12-07T06:28:40;1.90;99.90
36206;DHT22;22242;48.796;9.930;2022-12-07T06:31:07;1.90;99.90
36206;DHT22;22242;48.796;9.930;2022-12-07T06:33:35;1.90;99.90
36206;DHT22;22242;48.796;9.930;2022-12-07T06:36:03;1.80;99.90
36206;DHT22;22242;48.796;9.930;2022-12-07T06:38:30;1.90;99.90
36206;DHT22;22242;48.796;9.930;2022-12-07T06:40:57;1.90;99.90
36206;DHT22;22242;48.796;9.930;2022-12-07T06:43:23;2.10;99.90
36206;DHT22;22242;48.796;9.930;2022-12-07T06:45:50;2.00;99.90
36206;DHT22;22242;48.796;9.930;2022-12-07T06:48:17;2.10;99.90
36206;DHT22;22242;48.796;9.930;2022-12-07T06:50:46;2.20;99.90
36206;DHT22;22242;48.796;9.930;2022-12-07T06:53:13;2.20;99.90
36206;DHT22;22242;48.796;9.930;2022-12-07T06:55:40;2.10;99.90
36206;DHT22;22242;48.796;9.930;2022-12-07T06:58:06;2.10;99.90
36206;DHT22;22242;48.796;9.930;2022-12-07T07:00:33;2.10;99.90
36206;DHT22;22242;48.796;9.930;2022-12-07T07:03:01;2.10;99.90
36206;DHT22;22242;48.796;9.930;2022-12-07T07:05:28;2.10;99.90
36206;DHT22;22242;48.796;9.930;2022-12-07T07:07:56;2.20;99.90
36206;DHT22;22242;48.796;9.930;2022-12-07T07:10:23;2.10;99.90
36206;DHT22;22242;48.796;9.930;2022-12-07T07:12:50;2.20;99.90
36206;DHT22;22242;48.796;9.930;2022-12-07T07:15:17;2.20;99.90
36206;DHT22;22242;48.796;9.930;2022-12-07T07:17:44;2.20;99.90
36206;DHT22;22242;48.796;9.930;2022-12-07T07:20:11;2.30;99.90
36206;DHT22;22242;48.796;9.930;2022-12-07T07:22:38;2.30;99.90
36206;DHT22;22242;48.796;9.930;2022-12-07T07:25:07;2.30;99.90
36206;DHT22;22242;48.796;9.930;2022-12-07T07:27:34;2.30;99.90
36206;DHT22;22242;48.796;9.930;2022-12-07T07:30:00;2.30;99.90
36206;DHT22;22242;48.796;9.930;2022-12-07T07:32:27;2.40;99.90
36206;DHT22;22242;48.796;9.930;2022-12-07T07:34:54;2.40;99.90
36206;DHT22;22242;48.796;9.930;2022-12-07T07:37:21;2.30;99.90
36206;DHT22;22242;48.796;9.930;2022-12-07T07:39:48;2.30;99.90
36206;DHT22;22242;48.796;9.930;2022-12-07T07:42:16;2.40;99.90
36206;DHT22;22242;48.796;9.930;2022-12-07T07:44:43;2.40;99.90
36206;DHT22;22242;48.796;9.930;2022-12-07T07:47:10;2.40;99.90
36206;DHT22;22242;48.796;9.930;2022-12-07T07:49:37;2.40;99.90
36206;DHT22;22242;48.796;9.930;2022-12-07T07:52:05;2.40;99.90
36206;DHT22;22242;48.796;9.930;2022-12-07T07:54:32;2.50;99.90
36206;DHT22;22242;48.796;9.930;2022-12-07T07:56:59;2.50;99.90
36206;DHT22;22242;48.796;9.930;2022-12-07T07:59:27;2.50;99.90
36206;DHT22;22242;48.796;9.930;2022-12-07T08:01:54;2.60;99.90
36206;DHT22;22242;48.796;9.930;2022-12-07T08:04:21;2.60;99.90
36206;DHT22;22242;48.796;9.930;2022-12-07T08:06:48;2.70;99.90
36206;DHT22;22242;48.796;9.930;2022-12-07T08:09:15;2.60;99.90
36206;DHT22;22242;48.796;9.930;2022-12-07T08:11:42;2.60;99.90
36206;DHT22;22242;48.796;9.930;2022-12-07T08:14:09;2.60;99.90
36206;DHT22;22242;48.796;9.930;2022-12-07T08:16:38;2.60;99.90
36206;DHT22;22242;48.796;9.930;2022-12-07T08:19:05;2.70;99.90
36206;DHT22;22242;48.796;9.930;2022-12-07T08:21:32;2.70;99.90
36206;DHT22;22242;48.796;9.930;2022-12-07T08:23:59;2.70;99.90
36206;DHT22;22242;48.796;9.930;2022-12-07T08:26:26;2.70;99.90
36206;DHT22;22242;48.796;9.930;2022-12-07T08:28:53;2.80;99.90
36206;DHT22;22242;48.796;9.930;2022-12-07T08:31:20;2.80;99.90
36206;DHT22;22242;48.796;9.930;2022-12-07T08:33:48;2.90;99.90
36206;DHT22;22242;48.796;9.930;2022-12-07T08:36:17;3.00;99.90
36206;DHT22;22242;48.796;9.930;2022-12-07T08:38:44;3.10;99.90
36206;DHT22;22242;48.796;9.930;2022-12-07T08:41:11;3.00;99.90
36206;DHT22;22242;48.796;9.930;2022-12-07T08:43:38;2.90;99.90
36206;DHT22;22242;48.796;9.930;2022-12-07T08:46:08;2.90;99.90
36206;DHT22;22242;48.796;9.930;2022-12-07T08:48:38;3.00;99.90
36206;DHT22;22242;48.796;9.930;2022-12-07T08:51:08;3.00;99.90
36206;DHT22;22242;48.796;9.930;2022-12-07T08:53:35;3.10;99.90
36206;DHT22;22242;48.796;9.930;2022-12-07T08:56:04;3.10;99.90
36206;DHT22;22242;48.796;9.930;2022-12-07T08:58:32;3.10;99.90
36206;DHT22;22242;48.796;9.930;2022-12-07T09:00:59;3.00;99.90
36206;DHT22;22242;48.796;9.930;2022-12-07T09:03:25;3.20;99.90
36206;DHT22;22242;48.796;9.930;2022-12-07T09:05:52;3.20;99.90
36206;DHT22;22242;48.796;9.930;2022-12-07T09:08:21;3.20;99.90
36206;DHT22;22242;48.796;9.930;2022-12-07T09:10:49;3.20;99.90
36206;DHT22;22242;48.796;9.930;2022-12-07T09:13:16;3.40;99.90
36206;DHT22;22242;48.796;9.930;2022-12-07T09:15:42;3.40;99.90
36206;DHT22;22242;48.796;9.930;2022-12-07T09:18:09;3.60;99.90
36206;DHT22;22242;48.796;9.930;2022-12-07T09:20:36;3.60;99.90
36206;DHT22;22242;48.796;9.930;2022-12-07T09:23:05;3.60;99.90
36206;DHT22;22242;48.796;9.930;2022-12-07T09:25:34;3.80;99.90
36206;DHT22;22242;48.796;9.930;2022-12-07T09:28:01;3.60;99.90
36206;DHT22;22242;48.796;9.930;2022-12-07T09:30:28;3.70;99.90
36206;DHT22;22242;48.796;9.930;2022-12-07T09:32:56;3.70;99.90
36206;DHT22;22242;48.796;9.930;2022-12-07T09:35:24;3.60;99.90
36206;DHT22;22242;48.796;9.930;2022-12-07T09:37:51;3.70;99.90
36206;DHT22;22242;48.796;9.930;2022-12-07T09:40:20;3.70;99.90
36206;DHT22;22242;48.796;9.930;2022-12-07T09:42:51;3.80;99.90
36206;DHT22;22242;48.796;9.930;2022-12-07T09:45:21;3.90;99.90
36206;DHT22;22242;48.796;9.930;2022-12-07T09:47:49;3.90;99.90
36206;DHT22;22242;48.796;9.930;2022-12-07T09:50:20;3.70;99.90
36206;DHT22;22242;48.796;9.930;2022-12-07T09:52:49;3.70;99.90
36206;DHT22;22242;48.796;9.930;2022-12-07T09:55:21;4.00;99.90
36206;DHT22;22242;48.796;9.930;2022-12-07T09:57:50;4.00;99.90
36206;DHT22;22242;48.796;9.930;2022-12-07T10:00:21;4.10;99.90
36206;DHT22;22242;48.796;9.930;2022-12-07T10:02:52;4.30;99.90
36206;DHT22;22242;48.796;9.930;2022-12-07T10:05:24;4.30;99.90
36206;DHT22;22242;48.796;9.930;2022-12-07T10:07:52;4.50;99.90
36206;DHT22;22242;48.796;9.930;2022-12-07T10:10:23;4.50;99.90
36206;DHT22;22242;48.796;9.930;2022-12-07T10:12:57;4.60;99.90
36206;DHT22;22242;48.796;9.930;2022-12-07T10:15:41;4.60;99.90
36206;DHT22;22242;48.796;9.930;2022-12-07T10:18:18;4.60;99.90
36206;DHT22;22242;48.796;9.930;2022-12-07T10:20:47;4.40;99.90
36206;DHT22;22242;48.796;9.930;2022-12-07T10:23:16;4.20;99.90
36206;DHT22;22242;48.796;9.930;2022-12-07T10:25:43;4.00;99.90
36206;DHT22;22242;48.796;9.930;2022-12-07T10:28:15;4.00;99.90
36206;DHT22;22242;48.796;9.930;2022-12-07T10:31:08;3.90;99.90
36206;DHT22;22242;48.796;9.930;2022-12-07T10:33:50;4.00;99.90
36206;DHT22;22242;48.796;9.930;2022-12-07T10:36:21;4.00;99.90
36206;DHT22;22242;48.796;9.930;2022-12-07T10:38:50;4.10;99.90
36206;DHT22;22242;48.796;9.930;2022-12-07T10:41:18;4.20;99.90
36206;DHT22;22242;48.796;9.930;2022-12-07T10:43:52;4.20;99.90
36206;DHT22;22242;48.796;9.930;2022-12-07T10:46:51;4.20;99.90
36206;DHT22;22242;48.796;9.930;2022-12-07T10:49:46;4.20;99.90
36206;DHT22;22242;48.796;9.930;2022-12-07T10:52:29;4.30;99.90
36206;DHT22;22242;48.796;9.930;2022-12-07T10:55:08;4.20;99.90
36206;DHT22;22242;48.796;9.930;2022-12-07T10:57:51;4.50;99.90
36206;DHT22;22242;48.796;9.930;2022-12-07T11:00:25;4.50;99.90
36206;DHT22;22242;48.796;9.930;2022-12-07T11:03:06;4.50;99.90
36206;DHT22;22242;48.796;9.930;2022-12-07T11:05:42;4.40;99.90
36206;DHT22;22242;48.796;9.930;2022-12-07T11:08:18;4.30;99.90
36206;DHT22;22242;48.796;9.930;2022-12-07T11:10:51;4.50;99.90
36206;DHT22;22242;48.796;9.930;2022-12-07T11:13:27;4.40;99.90
36206;DHT22;22242;48.796;9.930;2022-12-07T11:16:14;4.60;99.90
36206;DHT22;22242;48.796;9.930;2022-12-07T11:18:51;4.60;99.90
36206;DHT22;22242;48.796;9.930;2022-12-07T11:21:25;4.60;99.90
36206;DHT22;22242;48.796;9.930;2022-12-07T11:23:59;4.60;99.90
36206;DHT22;22242;48.796;9.930;2022-12-07T11:26:40;4.50;99.90
36206;DHT22;22242;48.796;9.930;2022-12-07T11:29:25;4.50;99.90
36206;DHT22;22242;48.796;9.930;2022-12-07T11:32:02;4.50;99.90
36206;DHT22;22242;48.796;9.930;2022-12-07T11:34:37;4.60;99.90
36206;DHT22;22242;48.796;9.930;2022-12-07T11:37:09;4.90;99.90
36206;DHT22;22242;48.796;9.930;2022-12-07T11:39:42;4.90;99.90
36206;DHT22;22242;48.796;9.930;2022-12-07T11:42:15;4.80;99.90
36206;DHT22;22242;48.796;9.930;2022-12-07T11:44:49;4.70;99.90
36206;DHT22;22242;48.796;9.930;2022-12-07T11:47:26;4.60;99.90
36206;DHT22;22242;48.796;9.930;2022-12-07T11:49:54;4.60;99.90
36206;DHT22;22242;48.796;9.930;2022-12-07T11:52:30;4.70;99.90
36206;DHT22;22242;48.796;9.930;2022-12-07T11:54:57;4.50;99.90
36206;DHT22;22242;48.796;9.930;2022-12-07T11:57:30;4.60;99.90
36206;DHT22;22242;48.796;9.930;2022-12-07T12:00:02;4.60;99.90
36206;DHT22;22242;48.796;9.930;2022-12-07T12:02:36;4.60;99.90
36206;DHT22;22242;48.796;9.930;2022-12-07T12:05:13;4.60;99.90
36206;DHT22;22242;48.796;9.930;2022-12-07T12:07:42;4.40;99.90
36206;DHT22;22242;48.796;9.930;2022-12-07T12:10:18;4.40;99.90
36206;DHT22;22242;48.796;9.930;2022-12-07T12:15:51;4.20;99.90
36206;DHT22;22242;48.796;9.930;2022-12-07T12:18:45;4.20;99.90
36206;DHT22;22242;48.796;9.930;2022-12-07T12:21:16;4.00;99.90
36206;DHT22;22242;48.796;9.930;2022-12-07T12:23:45;4.00;99.90
36206;DHT22;22242;48.796;9.930;2022-12-07T12:26:17;3.90;99.90
36206;DHT22;22242;48.796;9.930;2022-12-07T12:28:52;3.90;99.90
36206;DHT22;22242;48.796;9.930;2022-12-07T12:31:36;3.90;99.90
36206;DHT22;22242;48.796;9.930;2022-12-07T12:34:29;3.90;99.90
36206;DHT22;22242;48.796;9.930;2022-12-07T12:36:57;3.90;99.90
36206;DHT22;22242;48.796;9.930;2022-12-07T12:39:24;3.80;99.90
36206;DHT22;22242;48.796;9.930;2022-12-07T12:41:59;3.90;99.90
36206;DHT22;22242;48.796;9.930;2022-12-07T12:47:58;3.90;99.90
36206;DHT22;22242;48.796;9.930;2022-12-07T12:50:29;4.00;99.90
36206;DHT22;22242;48.796;9.930;2022-12-07T12:58:49;4.20;99.90
36206;DHT22;22242;48.796;9.930;2022-12-07T13:01:40;4.20;99.90
36206;DHT22;22242;48.796;9.930;2022-12-07T13:04:34;4.30;99.90
36206;DHT22;22242;48.796;9.930;2022-12-07T13:07:06;4.30;99.90
36206;DHT22;22242;48.796;9.930;2022-12-07T13:09:35;4.20;99.90
36206;DHT22;22242;48.796;9.930;2022-12-07T13:12:04;4.30;99.90
36206;DHT22;22242;48.796;9.930;2022-12-07T13:14:55;4.20;99.90
36206;DHT22;22242;48.796;9.930;2022-12-07T13:17:55;4.30;99.90
36206;DHT22;22242;48.796;9.930;2022-12-07T13:20:48;4.20;99.90
36206;DHT22;22242;48.796;9.930;2022-12-07T13:23:22;4.00;99.90
36206;DHT22;22242;48.796;9.930;2022-12-07T13:26:09;4.00;99.90
36206;DHT22;22242;48.796;9.930;2022-12-07T13:28:42;4.10;99.90
36206;DHT22;22242;48.796;9.930;2022-12-07T13:31:18;4.00;99.90
36206;DHT22;22242;48.796;9.930;2022-12-07T13:33:47;3.90;99.90
36206;DHT22;22242;48.796;9.930;2022-12-07T13:36:21;4.10;99.90
36206;DHT22;22242;48.796;9.930;2022-12-07T13:38:52;4.10;99.90
36206;DHT22;22242;48.796;9.930;2022-12-07T13:41:21;4.00;99.90
36206;DHT22;22242;48.796;9.930;2022-12-07T13:43:52;4.00;99.90
36206;DHT22;22242;48.796;9.930;2022-12-07T13:46:24;4.00;99.90
36206;DHT22;22242;48.796;9.930;2022-12-07T13:48:52;3.90;99.90
36206;DHT22;22242;48.796;9.930;2022-12-07T13:51:23;3.90;99.90
36206;DHT22;22242;48.796;9.930;2022-12-07T13:53:54;4.00;99.90
36206;DHT22;22242;48.796;9.930;2022-12-07T13:56:24;3.90;99.90
36206;DHT22;22242;48.796;9.930;2022-12-07T13:58:52;3.80;99.90
36206;DHT22;22242;48.796;9.930;2022-12-07T14:01:19;3.80;99.90
36206;DHT22;22242;48.796;9.930;2022-12-07T14:03:46;3.70;99.90
36206;DHT22;22242;48.796;9.930;2022-12-07T14:06:18;3.80;99.90
36206;DHT22;22242;48.796;9.930;2022-12-07T14:08:46;3.70;99.90
36206;DHT22;22242;48.796;9.930;2022-12-07T14:11:19;3.70;99.90
36206;DHT22;22242;48.796;9.930;2022-12-07T14:13:58;3.70;99.90
36206;DHT22;22242;48.796;9.930;2022-12-07T14:16:28;3.60;99.90
36206;DHT22;22242;48.796;9.930;2022-12-07T14:18:57;3.70;99.90
36206;DHT22;22242;48.796;9.930;2022-12-07T14:21:26;3.90;99.90
36206;DHT22;22242;48.796;9.930;2022-12-07T14:24:12;3.90;99.90
36206;DHT22;22242;48.796;9.930;2022-12-07T14:26:43;3.90;99.90
36206;DHT22;22242;48.796;9.930;2022-12-07T14:29:31;3.80;99.90
36206;DHT22;22242;48.796;9.930;2022-12-07T14:32:12;3.80;99.90
36206;DHT22;22242;48.796;9.930;2022-12-07T14:34:41;3.80;99.90
36206;DHT22;22242;48.796;9.930;2022-12-07T14:37:09;3.70;99.90
36206;DHT22;22242;48.796;9.930;2022-12-07T14:39:36;3.80;99.90
36206;DHT22;22242;48.796;9.930;2022-12-07T14:42:04;3.80;99.90
36206;DHT22;22242;48.796;9.930;2022-12-07T14:44:31;3.90;99.90
36206;DHT22;22242;48.796;9.930;2022-12-07T14:46:58;3.70;99.90
36206;DHT22;22242;48.796;9.930;2022-12-07T14:49:25;3.70;99.90
36206;DHT22;22242;48.796;9.930;2022-12-07T14:51:52;3.70;99.90
36206;DHT22;22242;48.796;9.930;2022-12-07T14:54:20;3.70;99.90
36206;DHT22;22242;48.796;9.930;2022-12-07T14:56:50;3.60;99.90
36206;DHT22;22242;48.796;9.930;2022-12-07T14:59:18;3.60;99.90
36206;DHT22;22242;48.796;9.930;2022-12-07T15:01:45;3.60;99.90
36206;DHT22;22242;48.796;9.930;2022-12-07T15:04:12;3.50;99.90
36206;DHT22;22242;48.796;9.930;2022-12-07T15:06:39;3.50;99.90
36206;DHT22;22242;48.796;9.930;2022-12-07T15:09:10;3.50;99.90
36206;DHT22;22242;48.796;9.930;2022-12-07T15:11:37;3.50;99.90
36206;DHT22;22242;48.796;9.930;2022-12-07T15:14:03;3.40;99.90
36206;DHT22;22242;48.796;9.930;2022-12-07T15:16:41;3.40;99.90
36206;DHT22;22242;48.796;9.930;2022-12-07T15:19:12;3.50;99.90
36206;DHT22;22242;48.796;9.930;2022-12-07T15:21:40;3.40;99.90
36206;DHT22;22242;48.796;9.930;2022-12-07T15:24:09;3.40;99.90
36206;DHT22;22242;48.796;9.930;2022-12-07T15:26:36;3.40;99.90
36206;DHT22;22242;48.796;9.930;2022-12-07T15:29:03;3.40;99.90
36206;DHT22;22242;48.796;9.930;2022-12-07T15:31:30;3.40;99.90
36206;DHT22;22242;48.796;9.930;2022-12-07T15:33:58;3.40;99.90
36206;DHT22;22242;48.796;9.930;2022-12-07T15:36:27;3.30;99.90
36206;DHT22;22242;48.796;9.930;2022-12-07T15:38:55;3.30;99.90
36206;DHT22;22242;48.796;9.930;2022-12-07T15:41:22;3.30;99.90
36206;DHT22;22242;48.796;9.930;2022-12-07T15:43:49;3.30;99.90
36206;DHT22;22242;48.796;9.930;2022-12-07T15:46:36;3.20;99.90
36206;DHT22;22242;48.796;9.930;2022-12-07T15:49:08;3.20;99.90
36206;DHT22;22242;48.796;9.930;2022-12-07T15:51:36;3.20;99.90
36206;DHT22;22242;48.796;9.930;2022-12-07T15:54:03;3.20;99.90
36206;DHT22;22242;48.796;9.930;2022-12-07T15:56:30;3.20;99.90
36206;DHT22;22242;48.796;9.930;2022-12-07T15:58:56;3.30;99.90
36206;DHT22;22242;48.796;9.930;2022-12-07T16:01:23;3.10;99.90
36206;DHT22;22242;48.796;9.930;2022-12-07T16:03:50;3.10;99.90
36206;DHT22;22242;48.796;9.930;2022-12-07T16:06:19;3.00;99.90
36206;DHT22;22242;48.796;9.930;2022-12-07T16:08:46;2.90;99.90
36206;DHT22;22242;48.796;9.930;2022-12-07T16:11:13;2.90;99.90
36206;DHT22;22242;48.796;9.930;2022-12-07T16:13:40;2.80;99.90
36206;DHT22;22242;48.796;9.930;2022-12-07T16:16:10;2.80;99.90
36206;DHT22;22242;48.796;9.930;2022-12-07T16:18:38;2.80;99.90